Time,TemperatureF,DewpointF,PressureIn,WindDirection,WindDirectionDegrees,WindSpeedMPH,WindSpeedGustMPH,Humidity,HourlyPrecipIn,Conditions,Clouds,dailyrainin,SoftwareType,DateUTC
2013-07-22 00:03:00,66.6,62.3,29.92,WSW,242,2.0,5.0,86,0.00,,,0.00,Wunderground v.1.15,2013-07-22 04:03:00,
2013-07-22 00:08:00,66.3,62.0,29.92,WSW,242,3.0,3.0,86,0.00,,,0.00,Wunderground v.1.15,2013-07-22 04:08:00,
2013-07-22 00:13:00,66.0,62.0,29.92,WSW,242,2.0,3.0,87,0.00,,,0.00,Wunderground v.1.15,2013-07-22 04:13:00,
2013-07-22 00:23:00,65.5,62.2,29.92,WSW,242,0.0,1.0,89,0.00,,,0.00,Wunderground v.1.15,2013-07-22 04:23:00,
2013-07-22 00:33:00,64.8,61.8,29.92,WSW,242,0.0,0.0,90,0.00,,,0.00,Wunderground v.1.15,2013-07-22 04:33:00,
2013-07-22 00:43:00,64.7,62.3,29.91,WSW,242,0.0,0.0,92,0.00,,,0.00,Wunderground v.1.15,2013-07-22 04:43:00,
2013-07-22 00:52:00,64.5,62.1,29.90,WSW,242,0.0,0.0,92,0.00,,,0.00,Wunderground v.1.15,2013-07-22 04:52:00,
2013-07-22 00:58:00,64.3,61.9,29.90,WSW,242,0.0,0.0,92,0.00,,,0.00,Wunderground v.1.15,2013-07-22 04:58:00,
2013-07-22 01:03:00,64.3,61.9,29.90,WSW,242,0.0,4.0,92,0.00,,,0.00,Wunderground v.1.15,2013-07-22 05:03:00,
2013-07-22 01:13:00,64.5,62.4,29.91,WSW,242,1.0,4.0,93,0.00,,,0.00,Wunderground v.1.15,2013-07-22 05:13:00,
2013-07-22 01:18:00,64.2,62.4,29.91,WSW,242,1.0,1.0,94,0.00,,,0.00,Wunderground v.1.15,2013-07-22 05:18:00,
2013-07-22 01:27:00,64.0,62.5,29.91,WSW,242,0.0,4.0,95,0.00,,,0.00,Wunderground v.1.15,2013-07-22 05:27:00,
2013-07-22 01:33:00,64.0,62.5,29.91,WSW,242,0.0,4.0,95,0.00,,,0.00,Wunderground v.1.15,2013-07-22 05:33:00,
2013-07-22 01:43:00,64.0,62.5,29.90,WSW,242,0.0,4.0,95,0.00,,,0.00,Wunderground v.1.15,2013-07-22 05:43:00,
2013-07-22 01:52:00,64.0,62.8,29.90,WSW,242,0.0,4.0,96,0.00,,,0.00,Wunderground v.1.15,2013-07-22 05:52:00,
2013-07-22 02:03:00,64.0,62.8,29.90,WSW,242,0.0,4.0,96,0.00,,,0.00,Wunderground v.1.15,2013-07-22 06:03:00,
2013-07-22 02:12:00,63.9,62.7,29.90,WSW,242,0.0,0.0,96,0.00,,,0.00,Wunderground v.1.15,2013-07-22 06:12:00,
2013-07-22 02:17:00,63.9,62.7,29.90,WSW,242,0.0,0.0,96,0.00,,,0.00,Wunderground v.1.15,2013-07-22 06:17:00,
2013-07-22 02:27:00,63.9,62.7,29.89,WSW,242,0.0,0.0,96,0.00,,,0.00,Wunderground v.1.15,2013-07-22 06:27:00,
2013-07-22 02:37:00,63.7,62.5,29.88,WSW,242,0.0,0.0,96,0.00,,,0.00,Wunderground v.1.15,2013-07-22 06:37:00,
2013-07-22 02:42:00,63.4,62.2,29.88,WSW,242,0.0,0.0,96,0.00,,,0.00,Wunderground v.1.15,2013-07-22 06:42:00,
2013-07-22 02:52:00,63.2,61.7,29.87,WSW,242,0.0,0.0,95,0.00,,,0.00,Wunderground v.1.15,2013-07-22 06:52:00,
2013-07-22 03:02:00,62.9,61.4,29.87,WSW,242,0.0,7.0,95,0.00,,,0.00,Wunderground v.1.15,2013-07-22 07:02:00,
2013-07-22 03:12:00,62.7,61.2,29.87,WSW,242,0.0,7.0,95,0.00,,,0.00,Wunderground v.1.15,2013-07-22 07:12:00,
2013-07-22 03:22:00,62.7,61.2,29.87,WSW,242,0.0,7.0,95,0.00,,,0.00,Wunderground v.1.15,2013-07-22 07:22:00,
2013-07-22 03:32:00,62.4,61.2,29.87,WSW,242,0.0,7.0,96,0.00,,,0.00,Wunderground v.1.15,2013-07-22 07:32:00,
2013-07-22 03:42:00,62.4,61.2,29.87,WSW,242,0.0,7.0,96,0.00,,,0.00,Wunderground v.1.15,2013-07-22 07:42:00,
2013-07-22 03:47:00,62.3,61.1,29.87,WSW,242,0.0,7.0,96,0.00,,,0.00,Wunderground v.1.15,2013-07-22 07:47:00,
2013-07-22 03:57:00,62.0,60.8,29.87,WSW,242,0.0,7.0,96,0.00,,,0.00,Wunderground v.1.15,2013-07-22 07:57:00,
2013-07-22 04:02:00,62.0,60.8,29.87,WSW,242,0.0,7.0,96,0.00,,,0.00,Wunderground v.1.15,2013-07-22 08:02:00,
2013-07-22 04:12:00,61.8,60.6,29.86,WSW,242,0.0,0.0,96,0.00,,,0.00,Wunderground v.1.15,2013-07-22 08:12:00,
2013-07-22 04:22:00,61.8,60.9,29.86,WSW,242,0.0,0.0,97,0.00,,,0.00,Wunderground v.1.15,2013-07-22 08:22:00,
2013-07-22 04:32:00,62.0,61.1,29.86,WSW,242,0.0,0.0,97,0.00,,,0.00,Wunderground v.1.15,2013-07-22 08:32:00,
2013-07-22 04:42:00,62.0,61.1,29.87,WSW,242,0.0,0.0,97,0.00,,,0.00,Wunderground v.1.15,2013-07-22 08:42:00,
2013-07-22 04:52:00,62.0,61.1,29.87,WSW,242,0.0,0.0,97,0.00,,,0.00,Wunderground v.1.15,2013-07-22 08:52:00,
2013-07-22 05:02:00,62.0,61.1,29.87,WSW,242,0.0,1.0,97,0.00,,,0.00,Wunderground v.1.15,2013-07-22 09:02:00,
2013-07-22 05:12:00,61.6,61.0,29.87,WSW,242,0.0,1.0,98,0.00,,,0.00,Wunderground v.1.15,2013-07-22 09:12:00,
2013-07-22 05:22:00,61.6,61.0,29.87,WSW,242,0.0,1.0,98,0.00,,,0.01,Wunderground v.1.15,2013-07-22 09:22:00,
2013-07-22 05:32:00,61.6,61.0,29.87,WSW,242,0.0,1.0,98,0.00,,,0.01,Wunderground v.1.15,2013-07-22 09:32:00,
2013-07-22 05:42:00,61.6,61.0,29.87,WSW,242,0.0,1.0,98,0.00,,,0.01,Wunderground v.1.15,2013-07-22 09:42:00,
2013-07-22 05:52:00,61.6,61.0,29.87,WSW,242,0.0,1.0,98,0.00,,,0.01,Wunderground v.1.15,2013-07-22 09:52:00,
2013-07-22 05:58:00,61.6,61.0,29.87,WSW,242,0.0,1.0,98,0.00,,,0.01,Wunderground v.1.15,2013-07-22 09:58:00,
2013-07-22 06:03:00,61.3,60.7,29.87,WSW,242,0.0,1.0,98,0.00,,,0.01,Wunderground v.1.15,2013-07-22 10:03:00,
2013-07-22 06:13:00,61.3,61.0,29.88,WSW,242,0.0,0.0,99,0.00,,,0.01,Wunderground v.1.15,2013-07-22 10:13:00,
2013-07-22 06:23:00,61.2,60.9,29.88,WSW,242,0.0,0.0,99,0.00,,,0.01,Wunderground v.1.15,2013-07-22 10:23:00,
2013-07-22 06:33:00,61.2,60.9,29.88,WSW,242,0.0,0.0,99,0.00,,,0.01,Wunderground v.1.15,2013-07-22 10:33:00,
2013-07-22 06:42:00,61.3,61.0,29.88,WSW,242,0.0,0.0,99,0.00,,,0.01,Wunderground v.1.15,2013-07-22 10:42:00,
2013-07-22 06:48:00,61.6,61.3,29.88,WSW,242,0.0,0.0,99,0.00,,,0.01,Wunderground v.1.15,2013-07-22 10:48:00,
2013-07-22 06:58:00,62.3,62.0,29.88,WSW,242,0.0,0.0,99,0.00,,,0.01,Wunderground v.1.15,2013-07-22 10:58:00,
2013-07-22 07:03:00,62.4,62.1,29.88,WSW,242,0.0,2.0,99,0.00,,,0.01,Wunderground v.1.15,2013-07-22 11:03:00,
2013-07-22 07:12:00,62.9,62.6,29.88,WSW,242,0.0,2.0,99,0.00,,,0.01,Wunderground v.1.15,2013-07-22 11:12:00,
2013-07-22 07:18:00,63.1,62.8,29.88,WSW,242,0.0,2.0,99,0.00,,,0.01,Wunderground v.1.15,2013-07-22 11:18:00,
2013-07-22 07:28:00,63.5,63.2,29.88,WSW,242,0.0,2.0,99,0.00,,,0.01,Wunderground v.1.15,2013-07-22 11:28:00,
2013-07-22 07:37:00,63.7,63.4,29.87,WSW,242,0.0,2.0,99,0.00,,,0.01,Wunderground v.1.15,2013-07-22 11:37:00,
2013-07-22 07:48:00,64.0,63.7,29.87,WSW,242,0.0,2.0,99,0.00,,,0.01,Wunderground v.1.15,2013-07-22 11:48:00,
2013-07-22 07:57:00,64.3,64.0,29.87,WSW,242,0.0,2.0,99,0.00,,,0.01,Wunderground v.1.15,2013-07-22 11:57:00,
2013-07-22 08:03:00,64.5,63.9,29.87,WSW,242,0.0,2.0,98,0.00,,,0.01,Wunderground v.1.15,2013-07-22 12:03:00,
2013-07-22 08:12:00,65.0,64.4,29.87,WSW,242,0.0,0.0,98,0.00,,,0.01,Wunderground v.1.15,2013-07-22 12:12:00,
2013-07-22 08:22:00,65.5,64.6,29.86,WSW,242,0.0,0.0,97,0.00,,,0.01,Wunderground v.1.15,2013-07-22 12:22:00,
2013-07-22 08:27:00,66.0,64.8,29.86,WSW,242,0.0,0.0,96,0.00,,,0.01,Wunderground v.1.15,2013-07-22 12:27:00,
2013-07-22 08:37:00,66.6,64.5,29.86,WSW,242,0.0,0.0,93,0.00,,,0.01,Wunderground v.1.15,2013-07-22 12:37:00,
2013-07-22 08:47:00,66.6,63.6,29.86,WSW,242,0.0,0.0,90,0.00,,,0.01,Wunderground v.1.15,2013-07-22 12:47:00,
2013-07-22 08:52:00,66.6,63.3,29.87,WSW,242,0.0,0.0,89,0.00,,,0.01,Wunderground v.1.15,2013-07-22 12:52:00,
2013-07-22 09:03:00,66.6,62.6,29.87,WSW,242,0.0,2.0,87,0.00,,,0.01,Wunderground v.1.15,2013-07-22 13:03:00,
2013-07-22 09:12:00,66.6,62.3,29.86,WSW,242,0.0,2.0,86,0.00,,,0.01,Wunderground v.1.15,2013-07-22 13:12:00,
2013-07-22 09:22:00,66.6,61.9,29.86,WSW,242,0.0,2.0,85,0.00,,,0.01,Wunderground v.1.15,2013-07-22 13:22:00,
2013-07-22 09:32:00,69.4,64.4,29.86,WSW,242,0.0,2.0,84,0.00,,,0.01,Wunderground v.1.15,2013-07-22 13:32:00,
2013-07-22 09:42:00,69.6,64.2,29.85,WSW,242,0.0,2.0,83,0.00,,,0.01,Wunderground v.1.15,2013-07-22 13:42:00,
2013-07-22 09:52:00,69.9,64.5,29.85,WSW,242,0.0,2.0,83,0.00,,,0.01,Wunderground v.1.15,2013-07-22 13:52:00,
2013-07-22 09:57:00,70.1,64.7,29.85,WSW,242,0.0,2.0,83,0.00,,,0.01,Wunderground v.1.15,2013-07-22 13:57:00,
2013-07-22 10:02:00,70.4,65.0,29.85,WSW,242,0.0,2.0,83,0.00,,,0.01,Wunderground v.1.15,2013-07-22 14:02:00,
2013-07-22 10:12:00,70.4,65.0,29.85,WSW,242,0.0,0.0,83,0.00,,,0.01,Wunderground v.1.15,2013-07-22 14:12:00,
2013-07-22 10:22:00,71.3,66.2,29.85,WSW,242,0.0,0.0,84,0.00,,,0.01,Wunderground v.1.15,2013-07-22 14:22:00,
2013-07-22 10:32:00,71.6,65.8,29.85,WSW,242,0.0,0.0,82,0.00,,,0.01,Wunderground v.1.15,2013-07-22 14:32:00,
2013-07-22 10:42:00,72.0,66.2,29.84,WSW,242,0.0,0.0,82,0.00,,,0.01,Wunderground v.1.15,2013-07-22 14:42:00,
2013-07-22 10:52:00,72.3,66.5,29.84,WSW,242,0.0,0.0,82,0.00,,,0.01,Wunderground v.1.15,2013-07-22 14:52:00,
2013-07-22 10:57:00,72.7,66.9,29.84,WSW,242,0.0,0.0,82,0.00,,,0.01,Wunderground v.1.15,2013-07-22 14:57:00,
2013-07-22 11:02:00,72.8,66.6,29.84,WSW,242,0.0,3.0,81,0.00,,,0.01,Wunderground v.1.15,2013-07-22 15:02:00,
2013-07-22 11:12:00,73.2,66.7,29.84,WSW,242,0.0,3.0,80,0.00,,,0.01,Wunderground v.1.15,2013-07-22 15:12:00,
2013-07-22 11:22:00,73.7,67.1,29.83,WSW,242,0.0,3.0,80,0.00,,,0.01,Wunderground v.1.15,2013-07-22 15:22:00,
2013-07-22 11:32:00,74.4,68.2,29.83,WSW,242,0.0,3.0,81,0.00,,,0.01,Wunderground v.1.15,2013-07-22 15:32:00,
2013-07-22 11:42:00,74.9,67.9,29.83,WSW,242,0.0,3.0,79,0.00,,,0.01,Wunderground v.1.15,2013-07-22 15:42:00,
2013-07-22 11:52:00,75.4,68.4,29.83,WSW,242,0.0,3.0,79,0.00,,,0.01,Wunderground v.1.15,2013-07-22 15:52:00,
2013-07-22 11:57:00,75.6,68.6,29.83,WSW,242,0.0,3.0,79,0.00,,,0.01,Wunderground v.1.15,2013-07-22 15:57:00,
2013-07-22 12:02:00,76.0,69.0,29.83,WSW,242,0.0,3.0,79,0.00,,,0.01,Wunderground v.1.15,2013-07-22 16:02:00,
2013-07-22 12:12:00,76.3,68.6,29.82,WSW,240,1.0,1.0,77,0.00,,,0.01,Wunderground v.1.15,2013-07-22 16:12:00,
2013-07-22 12:22:00,76.8,69.4,29.81,WSW,240,0.0,3.0,78,0.00,,,0.01,Wunderground v.1.15,2013-07-22 16:22:00,
2013-07-22 12:32:00,77.4,68.9,29.81,SW,236,1.0,2.0,75,0.00,,,0.01,Wunderground v.1.15,2013-07-22 16:32:00,
2013-07-22 12:42:00,77.7,69.1,29.81,SW,232,1.0,1.0,75,0.00,,,0.01,Wunderground v.1.15,2013-07-22 16:42:00,
2013-07-22 12:53:00,78.5,69.1,29.81,SW,235,0.0,5.0,73,0.00,,,0.01,Wunderground v.1.15,2013-07-22 16:53:00,
2013-07-22 13:03:00,78.8,69.0,29.81,WSW,246,0.0,6.0,72,0.00,,,0.01,Wunderground v.1.15,2013-07-22 17:03:00,
2013-07-22 13:13:00,79.6,69.8,29.80,West,271,0.0,6.0,72,0.00,,,0.01,Wunderground v.1.15,2013-07-22 17:13:00,
2013-07-22 13:23:00,79.6,69.4,29.80,West,263,0.0,6.0,71,0.00,,,0.01,Wunderground v.1.15,2013-07-22 17:23:00,
2013-07-22 13:33:00,79.6,69.8,29.80,WNW,298,0.0,6.0,72,0.00,,,0.01,Wunderground v.1.15,2013-07-22 17:33:00,
2013-07-22 13:43:00,80.3,70.0,29.80,West,272,0.0,6.0,71,0.00,,,0.01,Wunderground v.1.15,2013-07-22 17:43:00,
2013-07-22 13:53:00,79.6,69.8,29.79,West,272,0.0,6.0,72,0.00,,,0.01,Wunderground v.1.15,2013-07-22 17:53:00,
2013-07-22 14:03:00,80.1,69.8,29.79,West,273,0.0,6.0,71,0.00,,,0.01,Wunderground v.1.15,2013-07-22 18:03:00,
2013-07-22 14:13:00,80.7,69.6,29.78,West,273,0.0,0.0,69,0.00,,,0.01,Wunderground v.1.15,2013-07-22 18:13:00,
2013-07-22 14:27:00,80.5,70.6,29.78,West,273,0.0,0.0,72,0.00,,,0.01,Wunderground v.1.15,2013-07-22 18:27:00,
2013-07-22 14:53:00,81.1,70.0,29.77,West,273,0.0,0.0,69,0.00,,,0.01,Wunderground v.1.15,2013-07-22 18:53:00,
2013-07-22 15:03:00,80.9,70.2,29.77,West,273,0.0,7.0,70,0.00,,,0.01,Wunderground v.1.15,2013-07-22 19:03:00,
2013-07-22 15:12:00,80.7,70.0,29.76,West,273,0.0,7.0,70,0.00,,,0.01,Wunderground v.1.15,2013-07-22 19:12:00,
2013-07-22 15:22:00,80.7,70.4,29.75,West,273,0.0,7.0,71,0.00,,,0.01,Wunderground v.1.15,2013-07-22 19:22:00,
2013-07-22 15:32:00,80.5,70.6,29.75,NE,42,1.0,7.0,72,0.00,,,0.01,Wunderground v.1.15,2013-07-22 19:32:00,
2013-07-22 15:42:00,80.7,70.8,29.75,NNW,334,0.0,7.0,72,0.00,,,0.01,Wunderground v.1.15,2013-07-22 19:42:00,
2013-07-22 16:02:00,82.4,72.0,29.74,North,349,0.0,7.0,71,0.00,,,0.01,Wunderground v.1.15,2013-07-22 20:02:00,
2013-07-22 16:12:00,83.0,70.9,29.73,NNE,13,0.0,0.0,67,0.00,,,0.01,Wunderground v.1.15,2013-07-22 20:12:00,
2013-07-22 16:17:00,82.6,71.4,29.73,NNE,13,0.0,0.0,69,0.00,,,0.01,Wunderground v.1.15,2013-07-22 20:17:00,
2013-07-22 16:22:00,81.8,70.2,29.73,NNE,13,0.0,0.0,68,0.00,,,0.01,Wunderground v.1.15,2013-07-22 20:22:00,
2013-07-22 16:27:00,79.8,67.0,29.73,SW,236,1.0,9.0,65,0.00,,,0.01,Wunderground v.1.15,2013-07-22 20:27:00,
2013-07-22 16:37:00,75.1,65.5,29.75,WSW,238,3.0,4.0,72,0.00,,,0.01,Wunderground v.1.15,2013-07-22 20:37:00,
2013-07-22 16:42:00,73.9,65.9,29.75,SSW,207,2.0,5.0,76,0.00,,,0.01,Wunderground v.1.15,2013-07-22 20:42:00,
2013-07-22 16:52:00,71.1,65.3,29.75,SW,217,6.0,10.0,82,0.26,,,0.05,Wunderground v.1.15,2013-07-22 20:52:00,
2013-07-22 16:57:00,70.1,65.4,29.75,WSW,242,3.0,3.0,85,0.27,,,0.08,Wunderground v.1.15,2013-07-22 20:57:00,
2013-07-22 17:02:00,69.8,65.8,29.75,WSW,242,0.0,5.0,87,0.10,,,0.09,Wunderground v.1.15,2013-07-22 21:02:00,
2013-07-22 17:12:00,69.9,66.8,29.75,WSW,242,0.0,5.0,90,0.07,,,0.10,Wunderground v.1.15,2013-07-22 21:12:00,
2013-07-22 17:17:00,70.1,67.3,29.75,SW,229,0.0,5.0,91,0.07,,,0.10,Wunderground v.1.15,2013-07-22 21:17:00,
2013-07-22 17:27:00,70.6,68.2,29.73,SW,229,0.0,5.0,92,0.00,,,0.10,Wunderground v.1.15,2013-07-22 21:27:00,
2013-07-22 17:37:00,71.3,69.2,29.73,SW,229,0.0,5.0,93,0.00,,,0.10,Wunderground v.1.15,2013-07-22 21:37:00,
2013-07-22 17:47:00,71.5,69.7,29.73,SW,229,0.0,5.0,94,0.00,,,0.10,Wunderground v.1.15,2013-07-22 21:47:00,
2013-07-22 17:57:00,71.8,70.0,29.73,SW,229,0.0,5.0,94,0.00,,,0.10,Wunderground v.1.15,2013-07-22 21:57:00,
2013-07-22 18:02:00,71.5,69.4,29.73,SW,229,0.0,5.0,93,0.00,,,0.10,Wunderground v.1.15,2013-07-22 22:02:00,
2013-07-22 18:12:00,70.6,68.5,29.73,SW,229,0.0,0.0,93,0.00,,,0.10,Wunderground v.1.15,2013-07-22 22:12:00,
2013-07-22 18:17:00,70.4,68.3,29.73,SW,229,0.0,0.0,93,0.00,,,0.10,Wunderground v.1.15,2013-07-22 22:17:00,
2013-07-22 18:27:00,70.1,68.0,29.73,SW,229,0.0,0.0,93,0.00,,,0.10,Wunderground v.1.15,2013-07-22 22:27:00,
2013-07-22 18:37:00,69.9,67.8,29.73,SW,229,0.0,0.0,93,0.00,,,0.10,Wunderground v.1.15,2013-07-22 22:37:00,
2013-07-22 18:47:00,69.9,67.8,29.73,SW,229,0.0,0.0,93,0.00,,,0.10,Wunderground v.1.15,2013-07-22 22:47:00,
2013-07-22 18:53:00,70.1,68.0,29.72,SW,229,0.0,0.0,93,0.00,,,0.10,Wunderground v.1.15,2013-07-22 22:53:00,
2013-07-22 19:03:00,70.3,68.2,29.72,SW,229,0.0,16.0,93,0.00,,,0.10,Wunderground v.1.15,2013-07-22 23:03:00,
2013-07-22 19:13:00,70.4,68.6,29.72,SW,225,0.0,16.0,94,0.00,,,0.10,Wunderground v.1.15,2013-07-22 23:13:00,
2013-07-22 19:23:00,70.1,68.0,29.72,SSE,157,1.0,16.0,93,0.00,,,0.10,Wunderground v.1.15,2013-07-22 23:23:00,
2013-07-22 19:33:00,70.3,67.9,29.72,SSE,155,0.0,16.0,92,0.00,,,0.10,Wunderground v.1.15,2013-07-22 23:33:00,
2013-07-22 19:38:00,70.4,67.6,29.71,SSE,155,0.0,16.0,91,0.00,,,0.10,Wunderground v.1.15,2013-07-22 23:38:00,
2013-07-22 19:48:00,70.3,67.5,29.71,SSE,155,0.0,16.0,91,0.00,,,0.10,Wunderground v.1.15,2013-07-22 23:48:00,
2013-07-22 19:57:00,70.3,67.2,29.72,SSE,155,0.0,16.0,90,0.00,,,0.10,Wunderground v.1.15,2013-07-22 23:57:00,
2013-07-22 20:03:00,70.3,67.2,29.72,SSE,155,0.0,16.0,90,0.00,,,0.10,Wunderground v.1.15,2013-07-23 00:03:00,
2013-07-22 20:13:00,70.3,67.5,29.72,SSE,155,0.0,0.0,91,0.00,,,0.10,Wunderground v.1.15,2013-07-23 00:13:00,
2013-07-22 20:23:00,70.1,67.3,29.72,SSE,155,0.0,0.0,91,0.00,,,0.10,Wunderground v.1.15,2013-07-23 00:23:00,
2013-07-22 20:32:00,69.9,67.5,29.72,SSE,155,0.0,0.0,92,0.00,,,0.11,Wunderground v.1.15,2013-07-23 00:32:00,
2013-07-22 20:38:00,69.9,67.5,29.72,SSE,155,0.0,0.0,92,0.15,,,0.12,Wunderground v.1.15,2013-07-23 00:38:00,
2013-07-22 20:47:00,69.8,67.7,29.72,SSE,155,0.0,0.0,93,0.06,,,0.13,Wunderground v.1.15,2013-07-23 00:47:00,
2013-07-22 20:52:00,69.6,67.8,29.70,SSE,155,0.0,0.0,94,0.06,,,0.13,Wunderground v.1.15,2013-07-23 00:52:00,
2013-07-22 21:03:00,69.3,67.5,29.70,SSE,155,0.0,6.0,94,0.06,,,0.14,Wunderground v.1.15,2013-07-23 01:03:00,
2013-07-22 21:12:00,69.3,67.8,29.71,SSE,155,0.0,6.0,95,0.00,,,0.14,Wunderground v.1.15,2013-07-23 01:12:00,
2013-07-22 21:17:00,69.1,67.6,29.71,SSE,155,0.0,6.0,95,0.00,,,0.14,Wunderground v.1.15,2013-07-23 01:17:00,
2013-07-22 21:27:00,69.1,67.9,29.71,SSE,155,0.0,6.0,96,0.00,,,0.15,Wunderground v.1.15,2013-07-23 01:27:00,
2013-07-22 21:37:00,69.1,67.9,29.71,SSE,155,0.0,6.0,96,0.00,,,0.15,Wunderground v.1.15,2013-07-23 01:37:00,
2013-07-22 21:47:00,68.9,67.7,29.71,SSE,155,0.0,6.0,96,0.00,,,0.15,Wunderground v.1.15,2013-07-23 01:47:00,
2013-07-22 21:57:00,68.8,67.6,29.71,SSE,155,0.0,6.0,96,0.00,,,0.15,Wunderground v.1.15,2013-07-23 01:57:00,
2013-07-22 22:02:00,68.8,67.9,29.71,SSE,167,0.0,6.0,97,0.00,,,0.15,Wunderground v.1.15,2013-07-23 02:02:00,
2013-07-22 22:12:00,68.8,67.9,29.71,SSE,167,0.0,0.0,97,0.00,,,0.16,Wunderground v.1.15,2013-07-23 02:12:00,
2013-07-22 22:17:00,68.8,67.9,29.71,SSE,167,0.0,0.0,97,0.00,,,0.16,Wunderground v.1.15,2013-07-23 02:17:00,
2013-07-22 22:27:00,68.8,67.9,29.71,SSE,167,0.0,0.0,97,0.00,,,0.16,Wunderground v.1.15,2013-07-23 02:27:00,
2013-07-22 22:37:00,69.1,68.5,29.71,SSE,167,0.0,0.0,98,0.00,,,0.17,Wunderground v.1.15,2013-07-23 02:37:00,
2013-07-22 22:42:00,68.9,68.3,29.71,SSE,167,0.0,0.0,98,0.07,,,0.18,Wunderground v.1.15,2013-07-23 02:42:00,
2013-07-22 22:52:00,68.9,68.3,29.70,SW,215,0.0,2.0,98,0.20,,,0.20,Wunderground v.1.15,2013-07-23 02:52:00,
2013-07-22 23:02:00,68.8,68.2,29.70,SW,215,0.0,1.0,98,0.10,,,0.22,Wunderground v.1.15,2013-07-23 03:02:00,
2013-07-22 23:12:00,68.8,68.5,29.69,SW,215,0.0,1.0,99,0.10,,,0.24,Wunderground v.1.15,2013-07-23 03:12:00,
2013-07-22 23:22:00,68.6,68.3,29.69,SW,215,0.0,1.0,99,0.07,,,0.25,Wunderground v.1.15,2013-07-23 03:22:00,
2013-07-22 23:32:00,68.4,68.1,29.69,SW,215,0.0,1.0,99,0.06,,,0.26,Wunderground v.1.15,2013-07-23 03:32:00,
2013-07-22 23:42:00,68.3,68.0,29.69,SW,215,0.0,1.0,99,0.00,,,0.00,Wunderground v.1.15,2013-07-23 03:42:00,
2013-07-22 23:47:00,68.1,67.8,29.69,SW,215,0.0,1.0,99,0.00,,,0.00,Wunderground v.1.15,2013-07-23 03:47:00,
2013-07-22 23:57:00,68.1,67.8,29.68,SW,215,0.0,1.0,99,0.00,,,0.01,Wunderground v.1.15,2013-07-23 03:57:00,